Ballonweer?

Available data for EHGG from the past 2 hours
GRONINGEN/EELDE
Metar
EHGG 160025Z AUTO 18008KT 9999 NCD 06/01 Q1025

00:25 UTC

Wind: 180° 8kt

Visibility: 9999 m

Sky:

Temp: 6 deg C / 42.8 deg F

Dewpoint: 1 deg C / 33.8 deg F

Pressure: 1025 hPa

TAF
TAF EHGG 152301Z 1600/1706 18007KT CAVOK BECMG 1607/1610 22011KT PROB30 1615/1620 BKN014 BECMG 1701/1704 17006KT 7000 PROB30 TEMPO 1703/1706 4000 BR

Buienradar (tot 2 uur vooruit)

 

KNMI weerbulletin kleine luchtvaart

Klik hier om het weerbulletin te openen in een nieuw tabblad.